sensor_id;sensor_type;location;lat;lon;timestamp;temperature;humidity
78184;DHT22;67442;44.570;18.610;2023-03-01T00:01:41;2.10;99.90
78184;DHT22;67442;44.570;18.610;2023-03-01T00:04:09;2.20;99.90
78184;DHT22;67442;44.570;18.610;2023-03-01T00:06:39;2.20;99.90
78184;DHT22;67442;44.570;18.610;2023-03-01T00:09:10;2.10;99.90
78184;DHT22;67442;44.570;18.610;2023-03-01T00:11:37;2.20;99.90
78184;DHT22;67442;44.570;18.610;2023-03-01T00:14:05;2.10;99.90
78184;DHT22;67442;44.570;18.610;2023-03-01T00:16:37;2.10;99.90
78184;DHT22;67442;44.570;18.610;2023-03-01T00:19:16;2.10;99.90
78184;DHT22;67442;44.570;18.610;2023-03-01T00:21:43;2.20;99.90
78184;DHT22;67442;44.570;18.610;2023-03-01T00:24:15;2.20;99.90
78184;DHT22;67442;44.570;18.610;2023-03-01T00:26:42;2.10;99.90
78184;DHT22;67442;44.570;18.610;2023-03-01T00:29:13;2.10;99.90
78184;DHT22;67442;44.570;18.610;2023-03-01T00:31:43;2.10;99.90
78184;DHT22;67442;44.570;18.610;2023-03-01T00:34:11;2.10;99.90
78184;DHT22;67442;44.570;18.610;2023-03-01T00:36:38;2.10;99.90
78184;DHT22;67442;44.570;18.610;2023-03-01T00:39:12;2.10;99.90
78184;DHT22;67442;44.570;18.610;2023-03-01T00:41:40;2.10;99.90
78184;DHT22;67442;44.570;18.610;2023-03-01T00:44:11;2.10;99.90
78184;DHT22;67442;44.570;18.610;2023-03-01T00:46:43;2.10;99.90
78184;DHT22;67442;44.570;18.610;2023-03-01T00:49:14;2.10;99.90
78184;DHT22;67442;44.570;18.610;2023-03-01T00:51:40;2.10;99.90
78184;DHT22;67442;44.570;18.610;2023-03-01T00:54:08;2.00;99.90
78184;DHT22;67442;44.570;18.610;2023-03-01T00:56:39;2.10;99.90
78184;DHT22;67442;44.570;18.610;2023-03-01T00:59:06;2.10;99.90
78184;DHT22;67442;44.570;18.610;2023-03-01T01:01:34;2.10;99.90
78184;DHT22;67442;44.570;18.610;2023-03-01T01:04:20;2.10;99.90
78184;DHT22;67442;44.570;18.610;2023-03-01T01:06:48;2.10;99.90
78184;DHT22;67442;44.570;18.610;2023-03-01T01:09:17;2.10;99.90
78184;DHT22;67442;44.570;18.610;2023-03-01T01:11:49;2.10;99.90
78184;DHT22;67442;44.570;18.610;2023-03-01T01:14:20;2.10;99.90
78184;DHT22;67442;44.570;18.610;2023-03-01T01:16:47;2.10;99.90
78184;DHT22;67442;44.570;18.610;2023-03-01T01:19:18;2.10;99.90
78184;DHT22;67442;44.570;18.610;2023-03-01T01:21:45;2.10;99.90
78184;DHT22;67442;44.570;18.610;2023-03-01T01:24:15;2.10;99.90
78184;DHT22;67442;44.570;18.610;2023-03-01T01:26:42;2.10;99.90
78184;DHT22;67442;44.570;18.610;2023-03-01T01:29:13;2.10;99.90
78184;DHT22;67442;44.570;18.610;2023-03-01T01:31:43;2.20;99.90
78184;DHT22;67442;44.570;18.610;2023-03-01T01:34:16;2.10;99.90
78184;DHT22;67442;44.570;18.610;2023-03-01T01:36:51;2.20;99.90
78184;DHT22;67442;44.570;18.610;2023-03-01T01:39:20;2.10;99.90
78184;DHT22;67442;44.570;18.610;2023-03-01T01:41:48;2.10;99.90
78184;DHT22;67442;44.570;18.610;2023-03-01T01:44:26;2.10;99.90
78184;DHT22;67442;44.570;18.610;2023-03-01T01:47:00;2.00;99.90
78184;DHT22;67442;44.570;18.610;2023-03-01T01:49:55;2.00;99.90
78184;DHT22;67442;44.570;18.610;2023-03-01T01:52:29;2.00;99.90
78184;DHT22;67442;44.570;18.610;2023-03-01T01:55:07;2.00;99.90
78184;DHT22;67442;44.570;18.610;2023-03-01T01:57:52;2.00;99.90
78184;DHT22;67442;44.570;18.610;2023-03-01T02:00:23;2.00;99.90
78184;DHT22;67442;44.570;18.610;2023-03-01T02:03:03;2.00;99.90
78184;DHT22;67442;44.570;18.610;2023-03-01T02:08:40;2.10;99.90
78184;DHT22;67442;44.570;18.610;2023-03-01T02:11:08;2.10;99.90
78184;DHT22;67442;44.570;18.610;2023-03-01T02:13:36;2.00;99.90
78184;DHT22;67442;44.570;18.610;2023-03-01T02:16:23;2.00;99.90
78184;DHT22;67442;44.570;18.610;2023-03-01T02:18:51;2.00;99.90
78184;DHT22;67442;44.570;18.610;2023-03-01T02:21:28;2.00;99.90
78184;DHT22;67442;44.570;18.610;2023-03-01T02:24:08;2.10;99.90
78184;DHT22;67442;44.570;18.610;2023-03-01T02:26:42;2.00;99.90
78184;DHT22;67442;44.570;18.610;2023-03-01T02:29:11;2.00;99.90
78184;DHT22;67442;44.570;18.610;2023-03-01T02:31:38;2.10;99.90
78184;DHT22;67442;44.570;18.610;2023-03-01T02:34:28;2.00;99.90
78184;DHT22;67442;44.570;18.610;2023-03-01T02:37:22;2.00;99.90
78184;DHT22;67442;44.570;18.610;2023-03-01T02:39:58;2.00;99.90
78184;DHT22;67442;44.570;18.610;2023-03-01T02:42:37;2.00;99.90
78184;DHT22;67442;44.570;18.610;2023-03-01T02:45:11;2.00;99.90
78184;DHT22;67442;44.570;18.610;2023-03-01T02:47:38;2.00;99.90
78184;DHT22;67442;44.570;18.610;2023-03-01T02:53:45;2.10;99.90
78184;DHT22;67442;44.570;18.610;2023-03-01T02:56:17;2.10;99.90
78184;DHT22;67442;44.570;18.610;2023-03-01T02:58:45;2.00;99.90
78184;DHT22;67442;44.570;18.610;2023-03-01T03:01:14;2.00;99.90
78184;DHT22;67442;44.570;18.610;2023-03-01T03:03:46;2.00;99.90
78184;DHT22;67442;44.570;18.610;2023-03-01T03:06:12;2.00;99.90
78184;DHT22;67442;44.570;18.610;2023-03-01T03:08:40;1.90;99.90
78184;DHT22;67442;44.570;18.610;2023-03-01T03:11:07;2.00;99.90
78184;DHT22;67442;44.570;18.610;2023-03-01T03:13:35;2.00;99.90
78184;DHT22;67442;44.570;18.610;2023-03-01T03:16:03;2.00;99.90
78184;DHT22;67442;44.570;18.610;2023-03-01T03:18:31;2.00;99.90
78184;DHT22;67442;44.570;18.610;2023-03-01T03:21:02;2.00;99.90
78184;DHT22;67442;44.570;18.610;2023-03-01T03:23:30;2.00;99.90
78184;DHT22;67442;44.570;18.610;2023-03-01T03:25:58;2.10;99.90
78184;DHT22;67442;44.570;18.610;2023-03-01T03:28:25;2.00;99.90
78184;DHT22;67442;44.570;18.610;2023-03-01T03:30:56;2.00;99.90
78184;DHT22;67442;44.570;18.610;2023-03-01T03:33:32;2.00;99.90
78184;DHT22;67442;44.570;18.610;2023-03-01T03:36:00;2.00;99.90
78184;DHT22;67442;44.570;18.610;2023-03-01T03:38:26;2.00;99.90
78184;DHT22;67442;44.570;18.610;2023-03-01T03:41:05;2.00;99.90
78184;DHT22;67442;44.570;18.610;2023-03-01T03:43:38;2.10;99.90
78184;DHT22;67442;44.570;18.610;2023-03-01T03:46:05;2.10;99.90
78184;DHT22;67442;44.570;18.610;2023-03-01T03:48:33;2.00;99.90
78184;DHT22;67442;44.570;18.610;2023-03-01T03:51:01;2.00;99.90
78184;DHT22;67442;44.570;18.610;2023-03-01T03:53:32;2.10;99.90
78184;DHT22;67442;44.570;18.610;2023-03-01T03:55:59;2.10;99.90
78184;DHT22;67442;44.570;18.610;2023-03-01T03:58:25;2.10;99.90
78184;DHT22;67442;44.570;18.610;2023-03-01T04:00:54;2.10;99.90
78184;DHT22;67442;44.570;18.610;2023-03-01T04:03:27;2.00;99.90
78184;DHT22;67442;44.570;18.610;2023-03-01T04:05:54;2.00;99.90
78184;DHT22;67442;44.570;18.610;2023-03-01T04:08:22;2.00;99.90
78184;DHT22;67442;44.570;18.610;2023-03-01T04:11:01;1.90;99.90
78184;DHT22;67442;44.570;18.610;2023-03-01T04:13:48;1.90;99.90
78184;DHT22;67442;44.570;18.610;2023-03-01T04:16:14;1.90;99.90
78184;DHT22;67442;44.570;18.610;2023-03-01T04:18:42;1.90;99.90
78184;DHT22;67442;44.570;18.610;2023-03-01T04:21:13;2.00;99.90
78184;DHT22;67442;44.570;18.610;2023-03-01T04:23:44;2.00;99.90
78184;DHT22;67442;44.570;18.610;2023-03-01T04:26:15;2.00;99.90
78184;DHT22;67442;44.570;18.610;2023-03-01T04:28:46;2.00;99.90
78184;DHT22;67442;44.570;18.610;2023-03-01T04:31:18;2.10;99.90
78184;DHT22;67442;44.570;18.610;2023-03-01T04:33:53;2.10;99.90
78184;DHT22;67442;44.570;18.610;2023-03-01T04:36:23;2.10;99.90
78184;DHT22;67442;44.570;18.610;2023-03-01T04:38:50;2.10;99.90
78184;DHT22;67442;44.570;18.610;2023-03-01T04:41:24;2.10;99.90
78184;DHT22;67442;44.570;18.610;2023-03-01T04:43:50;2.10;99.90
78184;DHT22;67442;44.570;18.610;2023-03-01T04:46:19;2.10;99.90
78184;DHT22;67442;44.570;18.610;2023-03-01T04:48:47;2.10;99.90
78184;DHT22;67442;44.570;18.610;2023-03-01T04:51:17;2.10;99.90
78184;DHT22;67442;44.570;18.610;2023-03-01T04:53:45;2.00;99.90
78184;DHT22;67442;44.570;18.610;2023-03-01T04:56:12;2.00;99.90
78184;DHT22;67442;44.570;18.610;2023-03-01T04:58:40;2.10;99.90
78184;DHT22;67442;44.570;18.610;2023-03-01T05:01:30;2.10;99.90
78184;DHT22;67442;44.570;18.610;2023-03-01T05:03:57;2.10;99.90
78184;DHT22;67442;44.570;18.610;2023-03-01T05:06:29;2.10;99.90
78184;DHT22;67442;44.570;18.610;2023-03-01T05:08:56;2.10;99.90
78184;DHT22;67442;44.570;18.610;2023-03-01T05:11:24;2.10;99.90
78184;DHT22;67442;44.570;18.610;2023-03-01T05:13:51;2.00;99.90
78184;DHT22;67442;44.570;18.610;2023-03-01T05:16:21;2.00;99.90
78184;DHT22;67442;44.570;18.610;2023-03-01T05:18:48;2.00;99.90
78184;DHT22;67442;44.570;18.610;2023-03-01T05:21:17;2.00;99.90
78184;DHT22;67442;44.570;18.610;2023-03-01T05:23:48;2.00;99.90
78184;DHT22;67442;44.570;18.610;2023-03-01T05:26:17;2.00;99.90
78184;DHT22;67442;44.570;18.610;2023-03-01T05:28:44;2.00;99.90
78184;DHT22;67442;44.570;18.610;2023-03-01T05:31:11;2.00;99.90
78184;DHT22;67442;44.570;18.610;2023-03-01T05:33:41;2.00;99.90
78184;DHT22;67442;44.570;18.610;2023-03-01T05:36:12;2.10;99.90
78184;DHT22;67442;44.570;18.610;2023-03-01T05:38:40;2.00;99.90
78184;DHT22;67442;44.570;18.610;2023-03-01T05:41:14;2.10;99.90
78184;DHT22;67442;44.570;18.610;2023-03-01T05:43:41;2.10;99.90
78184;DHT22;67442;44.570;18.610;2023-03-01T05:46:10;2.20;99.90
78184;DHT22;67442;44.570;18.610;2023-03-01T05:48:39;2.10;99.90
78184;DHT22;67442;44.570;18.610;2023-03-01T05:51:11;2.10;99.90
78184;DHT22;67442;44.570;18.610;2023-03-01T05:53:38;2.20;99.90
78184;DHT22;67442;44.570;18.610;2023-03-01T05:56:06;2.20;99.90
78184;DHT22;67442;44.570;18.610;2023-03-01T05:58:34;2.20;99.90
78184;DHT22;67442;44.570;18.610;2023-03-01T06:01:11;2.20;99.90
78184;DHT22;67442;44.570;18.610;2023-03-01T06:03:40;2.30;99.90
78184;DHT22;67442;44.570;18.610;2023-03-01T06:06:07;2.20;99.90
78184;DHT22;67442;44.570;18.610;2023-03-01T06:08:34;2.30;99.90
78184;DHT22;67442;44.570;18.610;2023-03-01T06:11:02;2.20;99.90
78184;DHT22;67442;44.570;18.610;2023-03-01T06:13:29;2.20;99.90
78184;DHT22;67442;44.570;18.610;2023-03-01T06:15:57;2.30;99.90
78184;DHT22;67442;44.570;18.610;2023-03-01T06:18:24;2.20;99.90
78184;DHT22;67442;44.570;18.610;2023-03-01T06:20:55;2.20;99.90
78184;DHT22;67442;44.570;18.610;2023-03-01T06:23:26;2.30;99.90
78184;DHT22;67442;44.570;18.610;2023-03-01T06:25:54;2.30;99.90
78184;DHT22;67442;44.570;18.610;2023-03-01T06:28:21;2.30;99.90
78184;DHT22;67442;44.570;18.610;2023-03-01T06:30:49;2.30;99.90
78184;DHT22;67442;44.570;18.610;2023-03-01T06:33:16;2.40;99.90
78184;DHT22;67442;44.570;18.610;2023-03-01T06:35:46;2.40;99.90
78184;DHT22;67442;44.570;18.610;2023-03-01T06:38:14;2.50;99.90
78184;DHT22;67442;44.570;18.610;2023-03-01T06:40:44;2.50;99.90
78184;DHT22;67442;44.570;18.610;2023-03-01T06:43:16;2.50;99.90
78184;DHT22;67442;44.570;18.610;2023-03-01T06:45:43;2.60;99.90
78184;DHT22;67442;44.570;18.610;2023-03-01T06:48:12;2.60;99.90
78184;DHT22;67442;44.570;18.610;2023-03-01T06:50:39;2.60;99.90
78184;DHT22;67442;44.570;18.610;2023-03-01T06:53:05;2.60;99.90
78184;DHT22;67442;44.570;18.610;2023-03-01T06:55:37;2.60;99.90
78184;DHT22;67442;44.570;18.610;2023-03-01T06:58:03;2.60;99.90
78184;DHT22;67442;44.570;18.610;2023-03-01T07:00:34;2.60;99.90
78184;DHT22;67442;44.570;18.610;2023-03-01T07:03:02;2.60;99.90
78184;DHT22;67442;44.570;18.610;2023-03-01T07:05:33;2.60;99.90
78184;DHT22;67442;44.570;18.610;2023-03-01T07:08:03;2.60;99.90
78184;DHT22;67442;44.570;18.610;2023-03-01T07:10:34;2.60;99.90
78184;DHT22;67442;44.570;18.610;2023-03-01T07:13:02;2.70;99.90
78184;DHT22;67442;44.570;18.610;2023-03-01T07:15:28;2.80;99.90
78184;DHT22;67442;44.570;18.610;2023-03-01T07:17:59;2.80;99.90
78184;DHT22;67442;44.570;18.610;2023-03-01T07:20:26;2.90;99.90
78184;DHT22;67442;44.570;18.610;2023-03-01T07:22:57;2.90;99.90
78184;DHT22;67442;44.570;18.610;2023-03-01T07:25:25;3.10;99.90
78184;DHT22;67442;44.570;18.610;2023-03-01T07:27:56;3.10;99.90
78184;DHT22;67442;44.570;18.610;2023-03-01T07:30:24;3.20;99.90
78184;DHT22;67442;44.570;18.610;2023-03-01T07:32:55;3.10;99.90
78184;DHT22;67442;44.570;18.610;2023-03-01T07:35:23;3.10;99.90
78184;DHT22;67442;44.570;18.610;2023-03-01T07:37:54;3.10;99.90
78184;DHT22;67442;44.570;18.610;2023-03-01T07:40:26;3.20;99.90
78184;DHT22;67442;44.570;18.610;2023-03-01T07:43:15;3.10;99.90
78184;DHT22;67442;44.570;18.610;2023-03-01T07:45:43;3.20;99.90
78184;DHT22;67442;44.570;18.610;2023-03-01T07:48:11;3.20;99.90
78184;DHT22;67442;44.570;18.610;2023-03-01T07:50:38;3.20;99.90
78184;DHT22;67442;44.570;18.610;2023-03-01T07:53:09;3.30;99.90
78184;DHT22;67442;44.570;18.610;2023-03-01T07:55:40;3.30;99.90
78184;DHT22;67442;44.570;18.610;2023-03-01T07:58:07;3.30;99.90
78184;DHT22;67442;44.570;18.610;2023-03-01T08:00:35;3.30;99.90
78184;DHT22;67442;44.570;18.610;2023-03-01T08:03:02;3.40;99.90
78184;DHT22;67442;44.570;18.610;2023-03-01T08:05:29;3.40;99.90
78184;DHT22;67442;44.570;18.610;2023-03-01T08:07:57;3.50;99.90
78184;DHT22;67442;44.570;18.610;2023-03-01T08:10:24;3.50;99.90
78184;DHT22;67442;44.570;18.610;2023-03-01T08:12:59;3.50;99.90
78184;DHT22;67442;44.570;18.610;2023-03-01T08:15:30;3.50;99.90
78184;DHT22;67442;44.570;18.610;2023-03-01T08:17:57;3.50;99.90
78184;DHT22;67442;44.570;18.610;2023-03-01T08:20:25;3.50;99.90
78184;DHT22;67442;44.570;18.610;2023-03-01T08:22:52;3.50;99.90
78184;DHT22;67442;44.570;18.610;2023-03-01T08:25:19;3.50;99.90
78184;DHT22;67442;44.570;18.610;2023-03-01T08:27:47;3.50;99.90
78184;DHT22;67442;44.570;18.610;2023-03-01T08:30:15;3.50;99.90
78184;DHT22;67442;44.570;18.610;2023-03-01T08:32:43;3.40;99.90
78184;DHT22;67442;44.570;18.610;2023-03-01T08:35:10;3.50;99.90
78184;DHT22;67442;44.570;18.610;2023-03-01T08:37:38;3.60;99.90
78184;DHT22;67442;44.570;18.610;2023-03-01T08:40:07;3.60;99.90
78184;DHT22;67442;44.570;18.610;2023-03-01T08:42:36;3.70;99.90
78184;DHT22;67442;44.570;18.610;2023-03-01T08:45:05;3.80;99.90
78184;DHT22;67442;44.570;18.610;2023-03-01T08:47:32;3.80;99.90
78184;DHT22;67442;44.570;18.610;2023-03-01T08:50:00;3.80;99.90
78184;DHT22;67442;44.570;18.610;2023-03-01T08:52:27;3.90;99.70
78184;DHT22;67442;44.570;18.610;2023-03-01T08:54:55;4.00;99.30
78184;DHT22;67442;44.570;18.610;2023-03-01T08:57:22;4.00;99.10
78184;DHT22;67442;44.570;18.610;2023-03-01T08:59:50;4.10;99.30
78184;DHT22;67442;44.570;18.610;2023-03-01T09:02:18;4.20;99.30
78184;DHT22;67442;44.570;18.610;2023-03-01T09:04:44;4.30;99.00
78184;DHT22;67442;44.570;18.610;2023-03-01T09:07:12;4.40;98.50
78184;DHT22;67442;44.570;18.610;2023-03-01T09:09:39;4.40;98.20
78184;DHT22;67442;44.570;18.610;2023-03-01T09:12:10;4.50;98.20
78184;DHT22;67442;44.570;18.610;2023-03-01T09:14:42;4.50;98.10
78184;DHT22;67442;44.570;18.610;2023-03-01T09:17:09;4.50;97.80
78184;DHT22;67442;44.570;18.610;2023-03-01T09:19:44;4.60;97.80
78184;DHT22;67442;44.570;18.610;2023-03-01T09:22:11;4.70;97.90
78184;DHT22;67442;44.570;18.610;2023-03-01T09:24:42;4.80;98.10
78184;DHT22;67442;44.570;18.610;2023-03-01T09:27:10;4.80;98.20
78184;DHT22;67442;44.570;18.610;2023-03-01T09:29:39;4.90;98.10
78184;DHT22;67442;44.570;18.610;2023-03-01T09:32:10;4.90;98.00
78184;DHT22;67442;44.570;18.610;2023-03-01T09:34:38;4.90;99.00
78184;DHT22;67442;44.570;18.610;2023-03-01T09:37:23;4.90;98.30
78184;DHT22;67442;44.570;18.610;2023-03-01T09:39:54;5.10;98.80
78184;DHT22;67442;44.570;18.610;2023-03-01T09:42:21;5.30;98.10
78184;DHT22;67442;44.570;18.610;2023-03-01T09:44:59;5.60;98.50
78184;DHT22;67442;44.570;18.610;2023-03-01T09:50:16;6.10;90.00
78184;DHT22;67442;44.570;18.610;2023-03-01T09:53:13;6.30;88.10
78184;DHT22;67442;44.570;18.610;2023-03-01T10:04:42;5.90;88.90
78184;DHT22;67442;44.570;18.610;2023-03-01T10:09:40;5.90;89.30
78184;DHT22;67442;44.570;18.610;2023-03-01T10:12:15;5.80;89.10
78184;DHT22;67442;44.570;18.610;2023-03-01T10:17:53;5.80;89.10
78184;DHT22;67442;44.570;18.610;2023-03-01T10:20:39;5.90;89.50
78184;DHT22;67442;44.570;18.610;2023-03-01T10:23:13;5.90;89.00
78184;DHT22;67442;44.570;18.610;2023-03-01T10:29:07;5.70;89.80
78184;DHT22;67442;44.570;18.610;2023-03-01T10:31:44;5.60;90.00
78184;DHT22;67442;44.570;18.610;2023-03-01T10:34:21;5.60;90.10
78184;DHT22;67442;44.570;18.610;2023-03-01T10:36:51;5.70;90.10
78184;DHT22;67442;44.570;18.610;2023-03-01T10:39:22;5.70;90.10
78184;DHT22;67442;44.570;18.610;2023-03-01T10:41:59;5.90;90.10
78184;DHT22;67442;44.570;18.610;2023-03-01T10:44:44;6.00;89.30
78184;DHT22;67442;44.570;18.610;2023-03-01T10:47:17;6.00;89.70
78184;DHT22;67442;44.570;18.610;2023-03-01T10:52:21;6.10;89.90
78184;DHT22;67442;44.570;18.610;2023-03-01T10:54:58;6.10;89.80
78184;DHT22;67442;44.570;18.610;2023-03-01T10:57:38;6.00;90.00
78184;DHT22;67442;44.570;18.610;2023-03-01T11:00:29;5.90;90.80
78184;DHT22;67442;44.570;18.610;2023-03-01T11:03:12;5.80;91.20
78184;DHT22;67442;44.570;18.610;2023-03-01T11:05:55;5.70;92.00
78184;DHT22;67442;44.570;18.610;2023-03-01T11:08:44;5.70;92.80
78184;DHT22;67442;44.570;18.610;2023-03-01T11:11:32;5.70;92.40
78184;DHT22;67442;44.570;18.610;2023-03-01T11:14:22;5.70;92.40
78184;DHT22;67442;44.570;18.610;2023-03-01T11:17:27;5.60;92.70
78184;DHT22;67442;44.570;18.610;2023-03-01T11:22:53;5.50;93.70
78184;DHT22;67442;44.570;18.610;2023-03-01T11:25:27;5.60;91.30
78184;DHT22;67442;44.570;18.610;2023-03-01T11:27:59;5.40;90.50
78184;DHT22;67442;44.570;18.610;2023-03-01T11:30:39;5.50;90.40
78184;DHT22;67442;44.570;18.610;2023-03-01T11:33:20;5.40;90.50
78184;DHT22;67442;44.570;18.610;2023-03-01T11:38:51;5.40;90.70
78184;DHT22;67442;44.570;18.610;2023-03-01T11:41:27;5.40;90.70
78184;DHT22;67442;44.570;18.610;2023-03-01T11:43:59;5.50;90.60
78184;DHT22;67442;44.570;18.610;2023-03-01T12:02:50;5.80;89.60
78184;DHT22;67442;44.570;18.610;2023-03-01T12:11:23;6.00;91.20
78184;DHT22;67442;44.570;18.610;2023-03-01T12:20:02;6.10;92.10
78184;DHT22;67442;44.570;18.610;2023-03-01T12:22:44;6.20;92.20
78184;DHT22;67442;44.570;18.610;2023-03-01T12:25:25;6.30;91.50
78184;DHT22;67442;44.570;18.610;2023-03-01T12:52:49;6.90;91.10
78184;DHT22;67442;44.570;18.610;2023-03-01T12:55:37;7.00;90.90
78184;DHT22;67442;44.570;18.610;2023-03-01T13:06:38;7.20;84.90
78184;DHT22;67442;44.570;18.610;2023-03-01T13:14:54;7.10;85.50
78184;DHT22;67442;44.570;18.610;2023-03-01T13:17:32;7.10;86.00
78184;DHT22;67442;44.570;18.610;2023-03-01T13:20:14;7.10;86.50
78184;DHT22;67442;44.570;18.610;2023-03-01T13:22:41;7.20;85.50
78184;DHT22;67442;44.570;18.610;2023-03-01T13:25:26;7.20;85.40
78184;DHT22;67442;44.570;18.610;2023-03-01T13:30:58;7.50;88.00
78184;DHT22;67442;44.570;18.610;2023-03-01T13:35:58;7.40;83.40
78184;DHT22;67442;44.570;18.610;2023-03-01T13:41:04;7.10;85.10
78184;DHT22;67442;44.570;18.610;2023-03-01T13:43:37;6.90;85.50
78184;DHT22;67442;44.570;18.610;2023-03-01T13:46:20;6.60;87.20
78184;DHT22;67442;44.570;18.610;2023-03-01T13:48:55;6.60;87.80
78184;DHT22;67442;44.570;18.610;2023-03-01T13:51:26;6.60;87.60
78184;DHT22;67442;44.570;18.610;2023-03-01T13:53:56;6.50;88.00
78184;DHT22;67442;44.570;18.610;2023-03-01T13:56:37;6.40;88.40
78184;DHT22;67442;44.570;18.610;2023-03-01T13:59:19;6.30;88.50
78184;DHT22;67442;44.570;18.610;2023-03-01T14:01:54;6.20;89.20
78184;DHT22;67442;44.570;18.610;2023-03-01T14:04:28;6.20;88.80
78184;DHT22;67442;44.570;18.610;2023-03-01T14:07:18;6.20;89.00
78184;DHT22;67442;44.570;18.610;2023-03-01T14:09:52;6.20;89.20
78184;DHT22;67442;44.570;18.610;2023-03-01T14:20:42;5.90;90.00
78184;DHT22;67442;44.570;18.610;2023-03-01T14:23:28;5.80;90.30
78184;DHT22;67442;44.570;18.610;2023-03-01T14:25:59;5.70;90.50
78184;DHT22;67442;44.570;18.610;2023-03-01T14:28:31;5.70;90.50
78184;DHT22;67442;44.570;18.610;2023-03-01T14:31:03;5.60;90.70
78184;DHT22;67442;44.570;18.610;2023-03-01T14:33:57;5.50;91.10
78184;DHT22;67442;44.570;18.610;2023-03-01T14:36:29;5.40;91.00
78184;DHT22;67442;44.570;18.610;2023-03-01T14:39:00;5.20;91.30
78184;DHT22;67442;44.570;18.610;2023-03-01T14:41:36;5.10;91.60
78184;DHT22;67442;44.570;18.610;2023-03-01T14:44:12;5.00;91.60
78184;DHT22;67442;44.570;18.610;2023-03-01T14:46:47;4.90;92.10
78184;DHT22;67442;44.570;18.610;2023-03-01T14:49:20;4.90;92.10
78184;DHT22;67442;44.570;18.610;2023-03-01T14:52:01;4.90;92.40
78184;DHT22;67442;44.570;18.610;2023-03-01T14:54:44;5.00;92.20
78184;DHT22;67442;44.570;18.610;2023-03-01T14:57:17;5.10;92.10
78184;DHT22;67442;44.570;18.610;2023-03-01T14:59:44;5.10;92.20
78184;DHT22;67442;44.570;18.610;2023-03-01T15:02:28;5.00;92.30
78184;DHT22;67442;44.570;18.610;2023-03-01T15:04:58;4.90;92.60
78184;DHT22;67442;44.570;18.610;2023-03-01T15:07:33;4.90;92.40
78184;DHT22;67442;44.570;18.610;2023-03-01T15:10:03;4.90;92.40
78184;DHT22;67442;44.570;18.610;2023-03-01T15:12:41;4.80;92.60
78184;DHT22;67442;44.570;18.610;2023-03-01T15:15:35;4.70;92.80
78184;DHT22;67442;44.570;18.610;2023-03-01T15:18:06;4.60;92.90
78184;DHT22;67442;44.570;18.610;2023-03-01T15:20:44;4.50;93.10
78184;DHT22;67442;44.570;18.610;2023-03-01T15:23:23;4.50;93.30
78184;DHT22;67442;44.570;18.610;2023-03-01T15:25:54;4.50;93.40
78184;DHT22;67442;44.570;18.610;2023-03-01T15:28:30;4.40;93.40
78184;DHT22;67442;44.570;18.610;2023-03-01T15:31:05;4.40;93.90
78184;DHT22;67442;44.570;18.610;2023-03-01T15:33:41;4.40;95.40
78184;DHT22;67442;44.570;18.610;2023-03-01T15:36:36;4.50;94.90
78184;DHT22;67442;44.570;18.610;2023-03-01T15:39:03;4.40;94.00
78184;DHT22;67442;44.570;18.610;2023-03-01T15:41:46;4.30;94.10
78184;DHT22;67442;44.570;18.610;2023-03-01T15:44:26;4.30;94.30
78184;DHT22;67442;44.570;18.610;2023-03-01T15:46:53;4.20;94.90
78184;DHT22;67442;44.570;18.610;2023-03-01T15:51:52;4.20;96.00
78184;DHT22;67442;44.570;18.610;2023-03-01T15:54:24;4.10;96.10
78184;DHT22;67442;44.570;18.610;2023-03-01T15:56:51;4.20;96.00
78184;DHT22;67442;44.570;18.610;2023-03-01T15:59:18;4.10;95.10
78184;DHT22;67442;44.570;18.610;2023-03-01T16:01:45;3.90;95.20
78184;DHT22;67442;44.570;18.610;2023-03-01T16:04:12;3.80;95.60
78184;DHT22;67442;44.570;18.610;2023-03-01T16:06:50;3.80;95.80
78184;DHT22;67442;44.570;18.610;2023-03-01T16:09:24;3.80;95.80
78184;DHT22;67442;44.570;18.610;2023-03-01T16:11:52;3.80;95.80
78184;DHT22;67442;44.570;18.610;2023-03-01T16:14:19;3.80;95.80
78184;DHT22;67442;44.570;18.610;2023-03-01T16:16:47;3.70;95.90
78184;DHT22;67442;44.570;18.610;2023-03-01T16:19:14;3.70;96.10
78184;DHT22;67442;44.570;18.610;2023-03-01T16:21:42;3.60;96.10
78184;DHT22;67442;44.570;18.610;2023-03-01T16:24:13;3.60;96.30
78184;DHT22;67442;44.570;18.610;2023-03-01T16:26:40;3.60;96.50
78184;DHT22;67442;44.570;18.610;2023-03-01T16:29:08;3.60;96.50
78184;DHT22;67442;44.570;18.610;2023-03-01T16:31:35;3.70;96.50
78184;DHT22;67442;44.570;18.610;2023-03-01T16:34:03;3.60;96.60
78184;DHT22;67442;44.570;18.610;2023-03-01T16:36:30;3.60;96.90
78184;DHT22;67442;44.570;18.610;2023-03-01T16:39:00;3.70;97.00
78184;DHT22;67442;44.570;18.610;2023-03-01T16:41:29;3.60;97.10
78184;DHT22;67442;44.570;18.610;2023-03-01T16:44:00;3.70;97.00
78184;DHT22;67442;44.570;18.610;2023-03-01T16:46:31;3.60;97.00
78184;DHT22;67442;44.570;18.610;2023-03-01T16:49:02;3.50;97.20
78184;DHT22;67442;44.570;18.610;2023-03-01T16:51:30;3.50;97.20
78184;DHT22;67442;44.570;18.610;2023-03-01T16:54:00;3.50;97.00
78184;DHT22;67442;44.570;18.610;2023-03-01T16:56:28;3.50;97.20
78184;DHT22;67442;44.570;18.610;2023-03-01T16:58:56;3.40;97.40
78184;DHT22;67442;44.570;18.610;2023-03-01T17:01:23;3.40;97.60
78184;DHT22;67442;44.570;18.610;2023-03-01T17:03:54;3.30;98.00
78184;DHT22;67442;44.570;18.610;2023-03-01T17:06:22;3.30;98.20
78184;DHT22;67442;44.570;18.610;2023-03-01T17:08:56;3.30;98.40
78184;DHT22;67442;44.570;18.610;2023-03-01T17:11:23;3.30;98.70
78184;DHT22;67442;44.570;18.610;2023-03-01T17:13:53;3.20;98.70
78184;DHT22;67442;44.570;18.610;2023-03-01T17:16:20;3.20;98.60
78184;DHT22;67442;44.570;18.610;2023-03-01T17:18:48;3.20;99.20
78184;DHT22;67442;44.570;18.610;2023-03-01T17:21:14;3.20;98.70
78184;DHT22;67442;44.570;18.610;2023-03-01T17:23:46;3.30;98.50
78184;DHT22;67442;44.570;18.610;2023-03-01T17:26:13;3.30;98.30
78184;DHT22;67442;44.570;18.610;2023-03-01T17:28:40;3.40;98.10
78184;DHT22;67442;44.570;18.610;2023-03-01T17:31:09;3.40;98.10
78184;DHT22;67442;44.570;18.610;2023-03-01T17:33:37;3.40;98.10
78184;DHT22;67442;44.570;18.610;2023-03-01T17:36:08;3.40;98.20
78184;DHT22;67442;44.570;18.610;2023-03-01T17:38:35;3.30;98.30
78184;DHT22;67442;44.570;18.610;2023-03-01T17:41:06;3.40;98.30
78184;DHT22;67442;44.570;18.610;2023-03-01T17:43:32;3.40;98.20
78184;DHT22;67442;44.570;18.610;2023-03-01T17:46:00;3.40;97.80
78184;DHT22;67442;44.570;18.610;2023-03-01T17:48:27;3.40;97.50
78184;DHT22;67442;44.570;18.610;2023-03-01T17:50:58;3.40;97.50
78184;DHT22;67442;44.570;18.610;2023-03-01T17:53:29;3.40;97.40
78184;DHT22;67442;44.570;18.610;2023-03-01T17:56:01;3.40;97.40
78184;DHT22;67442;44.570;18.610;2023-03-01T17:58:29;3.40;97.20
78184;DHT22;67442;44.570;18.610;2023-03-01T18:01:19;3.30;97.50